sensor_id;sensor_type;location;lat;lon;timestamp;pressure;altitude;pressure_sealevel;temperature;humidity
61026;BME280;46911;32.650;-16.902;2023-02-22T00:00:12;102103.44;;;14.70;58.61
61026;BME280;46911;32.650;-16.902;2023-02-22T00:02:24;102092.97;;;14.65;58.58
61026;BME280;46911;32.650;-16.902;2023-02-22T00:04:28;102099.31;;;14.64;58.85
61026;BME280;46911;32.650;-16.902;2023-02-22T00:06:32;102101.47;;;14.57;59.24
61026;BME280;46911;32.650;-16.902;2023-02-22T00:08:38;102100.94;;;14.52;59.09
61026;BME280;46911;32.650;-16.902;2023-02-22T00:10:39;102100.84;;;14.54;58.97
61026;BME280;46911;32.650;-16.902;2023-02-22T00:12:42;102079.25;;;14.41;59.24
61026;BME280;46911;32.650;-16.902;2023-02-22T00:14:43;102083.78;;;14.40;59.64
61026;BME280;46911;32.650;-16.902;2023-02-22T00:16:44;102102.94;;;14.49;59.74
61026;BME280;46911;32.650;-16.902;2023-02-22T00:18:46;102100.06;;;14.52;60.30
61026;BME280;46911;32.650;-16.902;2023-02-22T00:20:50;102099.84;;;14.55;60.51
61026;BME280;46911;32.650;-16.902;2023-02-22T00:22:50;102097.84;;;14.59;60.38
61026;BME280;46911;32.650;-16.902;2023-02-22T00:24:53;102093.25;;;14.61;60.87
61026;BME280;46911;32.650;-16.902;2023-02-22T00:26:54;102086.06;;;14.61;60.99
61026;BME280;46911;32.650;-16.902;2023-02-22T00:28:58;102100.09;;;14.66;61.06
61026;BME280;46911;32.650;-16.902;2023-02-22T00:31:03;102076.66;;;14.54;61.61
61026;BME280;46911;32.650;-16.902;2023-02-22T00:33:09;102085.09;;;14.62;62.00
61026;BME280;46911;32.650;-16.902;2023-02-22T00:35:11;102074.00;;;14.54;62.31
61026;BME280;46911;32.650;-16.902;2023-02-22T00:37:14;102074.09;;;14.52;62.55
61026;BME280;46911;32.650;-16.902;2023-02-22T00:39:17;102074.38;;;14.48;62.94
61026;BME280;46911;32.650;-16.902;2023-02-22T00:41:21;102075.31;;;14.47;63.24
61026;BME280;46911;32.650;-16.902;2023-02-22T00:43:24;102072.53;;;14.48;63.26
61026;BME280;46911;32.650;-16.902;2023-02-22T00:45:27;102088.94;;;14.58;63.43
61026;BME280;46911;32.650;-16.902;2023-02-22T00:47:32;102079.25;;;14.55;63.42
61026;BME280;46911;32.650;-16.902;2023-02-22T00:49:36;102064.56;;;14.47;63.40
61026;BME280;46911;32.650;-16.902;2023-02-22T00:51:40;102081.47;;;14.49;63.60
61026;BME280;46911;32.650;-16.902;2023-02-22T00:53:41;102072.94;;;14.42;63.79
61026;BME280;46911;32.650;-16.902;2023-02-22T00:55:47;102069.38;;;14.42;63.93
61026;BME280;46911;32.650;-16.902;2023-02-22T00:57:50;102067.34;;;14.45;64.34
61026;BME280;46911;32.650;-16.902;2023-02-22T00:59:54;102060.34;;;14.43;64.23
61026;BME280;46911;32.650;-16.902;2023-02-22T01:01:57;102075.13;;;14.50;64.19
61026;BME280;46911;32.650;-16.902;2023-02-22T01:03:58;102069.56;;;14.53;64.60
61026;BME280;46911;32.650;-16.902;2023-02-22T01:05:59;102068.78;;;14.51;64.91
61026;BME280;46911;32.650;-16.902;2023-02-22T01:08:03;102050.88;;;14.37;65.30
61026;BME280;46911;32.650;-16.902;2023-02-22T01:10:11;102049.25;;;14.34;65.59
61026;BME280;46911;32.650;-16.902;2023-02-22T01:12:12;102065.72;;;14.43;65.88
61026;BME280;46911;32.650;-16.902;2023-02-22T01:14:14;102054.31;;;14.39;66.09
61026;BME280;46911;32.650;-16.902;2023-02-22T01:16:17;102065.16;;;14.37;66.38
61026;BME280;46911;32.650;-16.902;2023-02-22T01:18:23;102069.00;;;14.33;66.76
61026;BME280;46911;32.650;-16.902;2023-02-22T01:20:26;102048.50;;;14.18;66.64
61026;BME280;46911;32.650;-16.902;2023-02-22T01:22:34;102058.16;;;14.20;67.25
61026;BME280;46911;32.650;-16.902;2023-02-22T01:24:37;102038.13;;;14.12;67.61
61026;BME280;46911;32.650;-16.902;2023-02-22T01:26:38;102054.81;;;14.17;67.70
61026;BME280;46911;32.650;-16.902;2023-02-22T01:28:41;102043.84;;;14.05;67.72
61026;BME280;46911;32.650;-16.902;2023-02-22T01:30:42;102057.69;;;14.14;68.51
61026;BME280;46911;32.650;-16.902;2023-02-22T01:32:43;102070.06;;;14.16;68.67
61026;BME280;46911;32.650;-16.902;2023-02-22T01:34:48;102066.69;;;14.13;69.06
61026;BME280;46911;32.650;-16.902;2023-02-22T01:36:51;102064.69;;;14.16;68.78
61026;BME280;46911;32.650;-16.902;2023-02-22T01:38:55;102061.53;;;14.10;69.26
61026;BME280;46911;32.650;-16.902;2023-02-22T01:40:56;102045.31;;;13.97;69.30
61026;BME280;46911;32.650;-16.902;2023-02-22T01:43:27;102066.88;;;14.10;69.20
61026;BME280;46911;32.650;-16.902;2023-02-22T01:47:34;102043.66;;;13.94;69.21
61026;BME280;46911;32.650;-16.902;2023-02-22T01:49:43;102036.09;;;14.01;68.64
61026;BME280;46911;32.650;-16.902;2023-02-22T01:51:52;102040.97;;;13.94;68.39
61026;BME280;46911;32.650;-16.902;2023-02-22T01:54:05;102052.19;;;14.01;68.42
61026;BME280;46911;32.650;-16.902;2023-02-22T01:56:08;102030.63;;;13.88;67.93
61026;BME280;46911;32.650;-16.902;2023-02-22T01:58:10;102034.28;;;13.87;67.94
61026;BME280;46911;32.650;-16.902;2023-02-22T02:00:13;102040.59;;;13.86;68.19
61026;BME280;46911;32.650;-16.902;2023-02-22T02:02:17;102043.28;;;13.86;68.11
61026;BME280;46911;32.650;-16.902;2023-02-22T02:04:22;102038.75;;;13.86;67.92
61026;BME280;46911;32.650;-16.902;2023-02-22T02:06:31;102039.44;;;13.90;68.30
61026;BME280;46911;32.650;-16.902;2023-02-22T02:10:38;102022.97;;;13.82;68.05
61026;BME280;46911;32.650;-16.902;2023-02-22T02:12:50;102047.41;;;13.92;67.76
61026;BME280;46911;32.650;-16.902;2023-02-22T02:15:27;102049.28;;;13.89;67.58
61026;BME280;46911;32.650;-16.902;2023-02-22T02:17:28;102036.88;;;13.88;67.12
61026;BME280;46911;32.650;-16.902;2023-02-22T02:19:59;102039.81;;;13.84;67.04
61026;BME280;46911;32.650;-16.902;2023-02-22T02:22:18;102044.03;;;13.88;66.87
61026;BME280;46911;32.650;-16.902;2023-02-22T02:27:16;102044.03;;;13.88;66.32
61026;BME280;46911;32.650;-16.902;2023-02-22T02:32:21;102034.44;;;13.84;66.34
61026;BME280;46911;32.650;-16.902;2023-02-22T02:36:51;102030.81;;;13.85;66.20
61026;BME280;46911;32.650;-16.902;2023-02-22T02:43:28;102035.13;;;13.87;66.09
61026;BME280;46911;32.650;-16.902;2023-02-22T02:45:39;102031.97;;;13.81;66.16
61026;BME280;46911;32.650;-16.902;2023-02-22T02:47:51;102017.75;;;13.64;66.10
61026;BME280;46911;32.650;-16.902;2023-02-22T02:50:15;102025.91;;;13.77;65.71
61026;BME280;46911;32.650;-16.902;2023-02-22T02:52:23;102010.28;;;13.69;65.97
61026;BME280;46911;32.650;-16.902;2023-02-22T02:54:25;102028.22;;;13.83;65.77
61026;BME280;46911;32.650;-16.902;2023-02-22T02:56:27;102030.22;;;13.80;65.57
61026;BME280;46911;32.650;-16.902;2023-02-22T02:58:31;102019.69;;;13.77;65.84
61026;BME280;46911;32.650;-16.902;2023-02-22T03:00:36;101999.25;;;13.60;65.89
61026;BME280;46911;32.650;-16.902;2023-02-22T03:02:56;102009.78;;;13.63;65.93
61026;BME280;46911;32.650;-16.902;2023-02-22T03:05:04;102033.31;;;13.73;65.97
61026;BME280;46911;32.650;-16.902;2023-02-22T03:14:59;101991.31;;;13.58;66.27
61026;BME280;46911;32.650;-16.902;2023-02-22T03:17:16;101992.25;;;13.57;66.20
61026;BME280;46911;32.650;-16.902;2023-02-22T03:19:31;102002.78;;;13.60;66.35
61026;BME280;46911;32.650;-16.902;2023-02-22T03:22:06;102013.75;;;13.71;66.56
61026;BME280;46911;32.650;-16.902;2023-02-22T03:24:21;101992.06;;;13.60;66.75
61026;BME280;46911;32.650;-16.902;2023-02-22T03:26:34;102000.69;;;13.65;66.81
61026;BME280;46911;32.650;-16.902;2023-02-22T03:28:40;101992.00;;;13.62;66.87
61026;BME280;46911;32.650;-16.902;2023-02-22T03:30:59;102011.75;;;13.75;66.67
61026;BME280;46911;32.650;-16.902;2023-02-22T03:33:09;102011.19;;;13.84;66.55
61026;BME280;46911;32.650;-16.902;2023-02-22T03:35:23;102011.44;;;13.80;66.47
61026;BME280;46911;32.650;-16.902;2023-02-22T03:37:30;101982.50;;;13.70;66.92
61026;BME280;46911;32.650;-16.902;2023-02-22T03:39:37;102017.22;;;13.88;66.55
61026;BME280;46911;32.650;-16.902;2023-02-22T03:41:46;101985.03;;;13.73;66.93
61026;BME280;46911;32.650;-16.902;2023-02-22T03:43:56;102013.94;;;13.83;66.25
61026;BME280;46911;32.650;-16.902;2023-02-22T03:45:58;101983.84;;;13.63;66.22
61026;BME280;46911;32.650;-16.902;2023-02-22T03:48:13;102007.34;;;13.74;66.58
61026;BME280;46911;32.650;-16.902;2023-02-22T03:50:24;102003.13;;;13.70;66.59
61026;BME280;46911;32.650;-16.902;2023-02-22T03:52:29;101982.88;;;13.50;66.72
61026;BME280;46911;32.650;-16.902;2023-02-22T03:54:30;101994.94;;;13.57;66.87
61026;BME280;46911;32.650;-16.902;2023-02-22T03:56:36;101981.50;;;13.43;67.17
61026;BME280;46911;32.650;-16.902;2023-02-22T03:58:53;101999.06;;;13.48;67.17
61026;BME280;46911;32.650;-16.902;2023-02-22T04:00:54;102006.13;;;13.49;66.95
61026;BME280;46911;32.650;-16.902;2023-02-22T04:02:56;101976.84;;;13.30;67.33
61026;BME280;46911;32.650;-16.902;2023-02-22T04:04:57;101971.47;;;13.30;67.55
61026;BME280;46911;32.650;-16.902;2023-02-22T04:07:02;101971.69;;;13.27;67.50
61026;BME280;46911;32.650;-16.902;2023-02-22T04:09:06;102000.34;;;13.41;67.20
61026;BME280;46911;32.650;-16.902;2023-02-22T04:11:08;101985.84;;;13.29;67.19
61026;BME280;46911;32.650;-16.902;2023-02-22T04:13:12;102000.56;;;13.38;66.81
61026;BME280;46911;32.650;-16.902;2023-02-22T04:15:21;101978.94;;;13.25;66.71
61026;BME280;46911;32.650;-16.902;2023-02-22T04:17:24;101994.47;;;13.34;66.79
61026;BME280;46911;32.650;-16.902;2023-02-22T04:19:25;101976.53;;;13.20;66.84
61026;BME280;46911;32.650;-16.902;2023-02-22T04:21:26;101971.34;;;13.17;66.75
61026;BME280;46911;32.650;-16.902;2023-02-22T04:23:27;101978.78;;;13.28;66.48
61026;BME280;46911;32.650;-16.902;2023-02-22T04:25:31;101989.28;;;13.31;66.57
61026;BME280;46911;32.650;-16.902;2023-02-22T04:27:41;101989.50;;;13.28;66.44
61026;BME280;46911;32.650;-16.902;2023-02-22T04:29:42;101975.66;;;13.20;66.65
61026;BME280;46911;32.650;-16.902;2023-02-22T04:31:43;101971.44;;;13.16;66.80
61026;BME280;46911;32.650;-16.902;2023-02-22T04:33:46;101976.34;;;13.23;66.76
61026;BME280;46911;32.650;-16.902;2023-02-22T04:35:51;101965.97;;;13.17;66.81
61026;BME280;46911;32.650;-16.902;2023-02-22T04:37:54;101975.75;;;13.18;66.75
61026;BME280;46911;32.650;-16.902;2023-02-22T04:40:01;101969.63;;;13.16;67.14
61026;BME280;46911;32.650;-16.902;2023-02-22T04:42:08;101959.19;;;13.12;67.43
61026;BME280;46911;32.650;-16.902;2023-02-22T04:44:11;101959.88;;;13.15;67.38
61026;BME280;46911;32.650;-16.902;2023-02-22T04:46:15;101966.06;;;13.16;67.37
61026;BME280;46911;32.650;-16.902;2023-02-22T04:48:21;101979.31;;;13.19;67.62
61026;BME280;46911;32.650;-16.902;2023-02-22T04:50:24;101971.44;;;13.16;67.74
61026;BME280;46911;32.650;-16.902;2023-02-22T04:52:27;101979.97;;;13.22;67.70
61026;BME280;46911;32.650;-16.902;2023-02-22T04:54:28;101972.41;;;13.15;67.62
61026;BME280;46911;32.650;-16.902;2023-02-22T04:56:29;101986.47;;;13.18;67.74
61026;BME280;46911;32.650;-16.902;2023-02-22T04:58:32;101944.38;;;12.90;67.81
61026;BME280;46911;32.650;-16.902;2023-02-22T05:00:33;101988.38;;;13.16;67.67
61026;BME280;46911;32.650;-16.902;2023-02-22T05:02:39;101966.81;;;13.03;67.83
61026;BME280;46911;32.650;-16.902;2023-02-22T05:04:43;101966.72;;;13.05;67.93
61026;BME280;46911;32.650;-16.902;2023-02-22T05:06:47;101976.56;;;13.04;68.14
61026;BME280;46911;32.650;-16.902;2023-02-22T05:08:48;101994.19;;;13.09;68.04
61026;BME280;46911;32.650;-16.902;2023-02-22T05:10:48;101977.81;;;12.99;68.30
61026;BME280;46911;32.650;-16.902;2023-02-22T05:12:49;102000.25;;;13.12;68.22
61026;BME280;46911;32.650;-16.902;2023-02-22T05:14:51;101987.28;;;13.04;68.35
61026;BME280;46911;32.650;-16.902;2023-02-22T05:16:58;101994.09;;;13.10;68.32
61026;BME280;46911;32.650;-16.902;2023-02-22T05:19:00;101994.94;;;13.11;68.23
61026;BME280;46911;32.650;-16.902;2023-02-22T05:21:01;101982.44;;;13.11;68.18
61026;BME280;46911;32.650;-16.902;2023-02-22T05:23:02;101995.03;;;13.09;68.51
61026;BME280;46911;32.650;-16.902;2023-02-22T05:25:05;101986.78;;;12.98;68.78
61026;BME280;46911;32.650;-16.902;2023-02-22T05:27:08;101999.88;;;13.02;68.95
61026;BME280;46911;32.650;-16.902;2023-02-22T05:29:10;101974.63;;;12.92;69.20
61026;BME280;46911;32.650;-16.902;2023-02-22T05:31:13;101991.94;;;13.01;69.05
61026;BME280;46911;32.650;-16.902;2023-02-22T05:33:17;101976.50;;;12.90;69.24
61026;BME280;46911;32.650;-16.902;2023-02-22T05:35:21;101973.22;;;12.85;69.35
61026;BME280;46911;32.650;-16.902;2023-02-22T05:37:22;101980.31;;;12.86;69.44
61026;BME280;46911;32.650;-16.902;2023-02-22T05:39:25;101995.94;;;12.94;69.59
61026;BME280;46911;32.650;-16.902;2023-02-22T05:41:32;101975.81;;;12.86;69.68
61026;BME280;46911;32.650;-16.902;2023-02-22T05:43:35;101997.41;;;12.99;69.75
61026;BME280;46911;32.650;-16.902;2023-02-22T05:45:36;101998.34;;;12.98;69.83
61026;BME280;46911;32.650;-16.902;2023-02-22T05:47:37;101992.97;;;12.98;69.97
61026;BME280;46911;32.650;-16.902;2023-02-22T05:49:40;101997.66;;;12.95;70.09
61026;BME280;46911;32.650;-16.902;2023-02-22T05:51:41;101993.78;;;13.00;70.05
61026;BME280;46911;32.650;-16.902;2023-02-22T05:53:45;101995.06;;;12.93;70.24
61026;BME280;46911;32.650;-16.902;2023-02-22T05:55:49;101979.47;;;12.85;70.26
61026;BME280;46911;32.650;-16.902;2023-02-22T05:57:51;101995.84;;;12.95;70.16
61026;BME280;46911;32.650;-16.902;2023-02-22T05:59:54;101992.66;;;12.88;70.17
61026;BME280;46911;32.650;-16.902;2023-02-22T06:01:55;102000.41;;;12.93;70.20
61026;BME280;46911;32.650;-16.902;2023-02-22T06:04:01;101981.63;;;12.79;70.35
61026;BME280;46911;32.650;-16.902;2023-02-22T06:06:02;102004.41;;;12.86;70.49
61026;BME280;46911;32.650;-16.902;2023-02-22T06:08:06;102002.44;;;12.89;70.45
61026;BME280;46911;32.650;-16.902;2023-02-22T06:10:09;101996.56;;;12.83;70.50
61026;BME280;46911;32.650;-16.902;2023-02-22T06:12:16;102003.72;;;12.82;70.55
61026;BME280;46911;32.650;-16.902;2023-02-22T06:14:17;101989.06;;;12.73;70.69
61026;BME280;46911;32.650;-16.902;2023-02-22T06:16:21;101997.41;;;12.83;70.77
61026;BME280;46911;32.650;-16.902;2023-02-22T06:18:22;101978.50;;;12.70;70.85
61026;BME280;46911;32.650;-16.902;2023-02-22T06:20:28;102007.09;;;12.86;71.13
61026;BME280;46911;32.650;-16.902;2023-02-22T06:22:29;101985.16;;;12.79;70.41
61026;BME280;46911;32.650;-16.902;2023-02-22T06:24:30;102002.34;;;12.91;70.50
61026;BME280;46911;32.650;-16.902;2023-02-22T06:26:35;101998.25;;;12.84;70.25
61026;BME280;46911;32.650;-16.902;2023-02-22T06:28:36;101995.78;;;12.81;70.16
61026;BME280;46911;32.650;-16.902;2023-02-22T06:30:42;101993.94;;;12.81;70.44
61026;BME280;46911;32.650;-16.902;2023-02-22T06:32:46;102005.53;;;12.82;70.19
61026;BME280;46911;32.650;-16.902;2023-02-22T06:34:49;102000.94;;;12.84;70.29
61026;BME280;46911;32.650;-16.902;2023-02-22T06:36:49;101982.28;;;12.66;70.31
61026;BME280;46911;32.650;-16.902;2023-02-22T06:38:55;101993.81;;;12.68;70.43
61026;BME280;46911;32.650;-16.902;2023-02-22T06:40:58;101984.88;;;12.68;70.21
61026;BME280;46911;32.650;-16.902;2023-02-22T06:42:59;102002.97;;;12.80;69.85
61026;BME280;46911;32.650;-16.902;2023-02-22T06:45:00;102004.00;;;12.78;70.00
61026;BME280;46911;32.650;-16.902;2023-02-22T06:47:01;102008.41;;;12.79;69.83
61026;BME280;46911;32.650;-16.902;2023-02-22T06:49:02;101980.41;;;12.68;69.72
61026;BME280;46911;32.650;-16.902;2023-02-22T06:51:03;102002.34;;;12.75;69.65
61026;BME280;46911;32.650;-16.902;2023-02-22T06:53:07;101987.75;;;12.65;69.63
61026;BME280;46911;32.650;-16.902;2023-02-22T06:55:11;102011.75;;;12.82;69.40
61026;BME280;46911;32.650;-16.902;2023-02-22T06:57:15;101985.78;;;12.68;69.35
61026;BME280;46911;32.650;-16.902;2023-02-22T06:59:16;102004.13;;;12.75;69.34
61026;BME280;46911;32.650;-16.902;2023-02-22T07:01:17;102005.13;;;12.73;69.23
61026;BME280;46911;32.650;-16.902;2023-02-22T07:03:18;101991.47;;;12.62;69.56
61026;BME280;46911;32.650;-16.902;2023-02-22T07:05:23;101996.63;;;12.65;69.61
61026;BME280;46911;32.650;-16.902;2023-02-22T07:07:26;101998.97;;;12.71;69.73
61026;BME280;46911;32.650;-16.902;2023-02-22T07:09:27;101981.88;;;12.58;69.97
61026;BME280;46911;32.650;-16.902;2023-02-22T07:11:30;101998.13;;;12.71;69.70
61026;BME280;46911;32.650;-16.902;2023-02-22T07:13:31;101983.44;;;12.62;69.44
61026;BME280;46911;32.650;-16.902;2023-02-22T07:15:35;101983.25;;;12.65;69.17
61026;BME280;46911;32.650;-16.902;2023-02-22T07:17:39;102003.28;;;12.74;69.21
61026;BME280;46911;32.650;-16.902;2023-02-22T07:19:42;102003.63;;;12.68;69.38
61026;BME280;46911;32.650;-16.902;2023-02-22T07:21:45;101998.28;;;12.68;69.23
61026;BME280;46911;32.650;-16.902;2023-02-22T07:23:52;101983.94;;;12.53;69.21
61026;BME280;46911;32.650;-16.902;2023-02-22T07:26:01;102010.28;;;12.61;69.41
61026;BME280;46911;32.650;-16.902;2023-02-22T07:28:04;102008.47;;;12.61;69.30
61026;BME280;46911;32.650;-16.902;2023-02-22T07:30:21;101985.94;;;12.49;69.12
61026;BME280;46911;32.650;-16.902;2023-02-22T07:32:29;102003.47;;;12.55;69.10
61026;BME280;46911;32.650;-16.902;2023-02-22T07:34:30;102009.94;;;12.51;69.19
61026;BME280;46911;32.650;-16.902;2023-02-22T07:36:33;102020.47;;;12.54;69.30
61026;BME280;46911;32.650;-16.902;2023-02-22T07:38:36;102018.50;;;12.58;69.39
61026;BME280;46911;32.650;-16.902;2023-02-22T07:40:40;102011.50;;;12.55;69.22
61026;BME280;46911;32.650;-16.902;2023-02-22T07:44:54;102013.06;;;12.75;68.23
61026;BME280;46911;32.650;-16.902;2023-02-22T07:46:57;102009.50;;;12.75;67.67
61026;BME280;46911;32.650;-16.902;2023-02-22T07:48:58;101998.38;;;12.66;67.47
61026;BME280;46911;32.650;-16.902;2023-02-22T07:51:04;101999.25;;;12.67;67.54
61026;BME280;46911;32.650;-16.902;2023-02-22T07:53:11;102035.00;;;12.82;67.46
61026;BME280;46911;32.650;-16.902;2023-02-22T07:55:14;102008.91;;;12.69;67.25
61026;BME280;46911;32.650;-16.902;2023-02-22T07:57:19;102005.13;;;12.73;67.03
61026;BME280;46911;32.650;-16.902;2023-02-22T07:59:25;102025.03;;;12.84;67.25
61026;BME280;46911;32.650;-16.902;2023-02-22T08:01:26;102009.59;;;12.73;67.37
61026;BME280;46911;32.650;-16.902;2023-02-22T08:03:30;102017.38;;;12.78;67.08
61026;BME280;46911;32.650;-16.902;2023-02-22T08:05:38;102035.50;;;12.88;67.13
61026;BME280;46911;32.650;-16.902;2023-02-22T08:07:41;102028.22;;;12.90;66.85
61026;BME280;46911;32.650;-16.902;2023-02-22T08:09:42;102038.69;;;12.95;66.78
61026;BME280;46911;32.650;-16.902;2023-02-22T08:11:45;102037.75;;;12.96;66.64
61026;BME280;46911;32.650;-16.902;2023-02-22T08:13:49;102037.38;;;13.02;66.64
61026;BME280;46911;32.650;-16.902;2023-02-22T08:15:51;102026.00;;;12.99;66.01
61026;BME280;46911;32.650;-16.902;2023-02-22T08:17:59;102015.97;;;13.02;65.79
61026;BME280;46911;32.650;-16.902;2023-02-22T08:20:00;102033.75;;;13.19;65.41
61026;BME280;46911;32.650;-16.902;2023-02-22T08:22:04;102015.09;;;13.18;65.06
61026;BME280;46911;32.650;-16.902;2023-02-22T08:24:07;102034.53;;;13.37;64.81
61026;BME280;46911;32.650;-16.902;2023-02-22T08:26:10;102021.25;;;13.34;64.16
61026;BME280;46911;32.650;-16.902;2023-02-22T08:28:17;102022.44;;;13.61;63.80
61026;BME280;46911;32.650;-16.902;2023-02-22T08:30:23;102021.16;;;13.52;63.78
61026;BME280;46911;32.650;-16.902;2023-02-22T08:32:24;102037.88;;;13.71;63.37
61026;BME280;46911;32.650;-16.902;2023-02-22T08:34:26;102022.56;;;13.73;63.06
61026;BME280;46911;32.650;-16.902;2023-02-22T08:36:26;102035.31;;;13.84;63.07
61026;BME280;46911;32.650;-16.902;2023-02-22T08:38:30;102020.44;;;13.79;62.59
61026;BME280;46911;32.650;-16.902;2023-02-22T08:40:35;102038.31;;;13.94;62.66
61026;BME280;46911;32.650;-16.902;2023-02-22T08:42:36;102022.47;;;13.89;62.76
61026;BME280;46911;32.650;-16.902;2023-02-22T08:44:38;102013.31;;;13.94;62.38
61026;BME280;46911;32.650;-16.902;2023-02-22T08:46:39;102015.59;;;14.00;62.37
61026;BME280;46911;32.650;-16.902;2023-02-22T08:48:49;102039.28;;;14.22;62.10
61026;BME280;46911;32.650;-16.902;2023-02-22T08:50:50;102038.88;;;14.28;62.01
61026;BME280;46911;32.650;-16.902;2023-02-22T08:52:55;102035.34;;;14.28;61.89
61026;BME280;46911;32.650;-16.902;2023-02-22T08:54:58;102036.97;;;14.45;61.57
61026;BME280;46911;32.650;-16.902;2023-02-22T08:56:59;102039.34;;;14.49;61.57
61026;BME280;46911;32.650;-16.902;2023-02-22T08:59:04;102044.34;;;14.55;61.30
61026;BME280;46911;32.650;-16.902;2023-02-22T09:01:07;102028.50;;;14.51;61.49
61026;BME280;46911;32.650;-16.902;2023-02-22T09:03:11;102036.88;;;14.61;61.42
61026;BME280;46911;32.650;-16.902;2023-02-22T09:05:18;102040.81;;;14.69;61.32
61026;BME280;46911;32.650;-16.902;2023-02-22T09:07:19;102059.94;;;14.92;61.16
61026;BME280;46911;32.650;-16.902;2023-02-22T09:09:20;102063.19;;;14.97;61.30
61026;BME280;46911;32.650;-16.902;2023-02-22T09:11:23;102041.03;;;14.94;61.02
61026;BME280;46911;32.650;-16.902;2023-02-22T09:13:29;102043.00;;;15.04;60.89
61026;BME280;46911;32.650;-16.902;2023-02-22T09:15:33;102052.53;;;15.23;60.53
61026;BME280;46911;32.650;-16.902;2023-02-22T09:17:42;102070.03;;;15.43;60.77
61026;BME280;46911;32.650;-16.902;2023-02-22T09:19:43;102054.97;;;15.40;60.56
61026;BME280;46911;32.650;-16.902;2023-02-22T09:21:54;102070.84;;;15.58;60.74
61026;BME280;46911;32.650;-16.902;2023-02-22T09:23:58;102063.13;;;15.66;60.55
61026;BME280;46911;32.650;-16.902;2023-02-22T09:26:10;102078.88;;;15.85;60.49
61026;BME280;46911;32.650;-16.902;2023-02-22T09:28:11;102070.84;;;15.98;60.52
61026;BME280;46911;32.650;-16.902;2023-02-22T09:30:30;102070.72;;;16.13;60.54
61026;BME280;46911;32.650;-16.902;2023-02-22T09:32:32;102065.09;;;16.29;60.23
61026;BME280;46911;32.650;-16.902;2023-02-22T09:34:37;102069.06;;;16.49;59.97
61026;BME280;46911;32.650;-16.902;2023-02-22T09:36:48;102067.03;;;16.65;59.67
61026;BME280;46911;32.650;-16.902;2023-02-22T09:38:51;102052.22;;;16.71;59.52
61026;BME280;46911;32.650;-16.902;2023-02-22T09:45:27;102066.13;;;17.39;58.50
61026;BME280;46911;32.650;-16.902;2023-02-22T09:47:40;102059.84;;;17.63;58.20
61026;BME280;46911;32.650;-16.902;2023-02-22T09:54:20;102057.69;;;20.63;53.61
61026;BME280;46911;32.650;-16.902;2023-02-22T09:56:28;102068.22;;;21.95;50.38
61026;BME280;46911;32.650;-16.902;2023-02-22T09:58:39;102071.13;;;22.31;47.46
61026;BME280;46911;32.650;-16.902;2023-02-22T10:00:45;102065.84;;;21.82;49.02
61026;BME280;46911;32.650;-16.902;2023-02-22T10:03:10;102075.59;;;21.55;49.24
61026;BME280;46911;32.650;-16.902;2023-02-22T10:05:31;102063.97;;;21.83;49.64
61026;BME280;46911;32.650;-16.902;2023-02-22T10:07:54;102053.53;;;22.35;48.46
61026;BME280;46911;32.650;-16.902;2023-02-22T10:10:01;102057.41;;;23.52;46.33
61026;BME280;46911;32.650;-16.902;2023-02-22T10:12:11;102061.50;;;23.56;44.93
61026;BME280;46911;32.650;-16.902;2023-02-22T10:20:59;102063.28;;;25.63;40.35
61026;BME280;46911;32.650;-16.902;2023-02-22T10:25:23;102062.63;;;27.13;37.17
61026;BME280;46911;32.650;-16.902;2023-02-22T10:27:32;102060.72;;;27.22;35.75
61026;BME280;46911;32.650;-16.902;2023-02-22T10:29:42;102060.06;;;27.35;35.76
61026;BME280;46911;32.650;-16.902;2023-02-22T10:31:51;102051.81;;;25.93;35.60
61026;BME280;46911;32.650;-16.902;2023-02-22T10:34:03;102046.47;;;26.16;35.76
61026;BME280;46911;32.650;-16.902;2023-02-22T10:36:17;102062.38;;;26.20;36.95
61026;BME280;46911;32.650;-16.902;2023-02-22T10:38:22;102052.19;;;27.40;34.79
61026;BME280;46911;32.650;-16.902;2023-02-22T10:40:25;102052.53;;;27.60;34.45
61026;BME280;46911;32.650;-16.902;2023-02-22T10:42:32;102060.84;;;27.90;33.66
61026;BME280;46911;32.650;-16.902;2023-02-22T10:44:36;102044.66;;;27.95;33.47
61026;BME280;46911;32.650;-16.902;2023-02-22T10:46:38;102053.19;;;29.33;32.20
61026;BME280;46911;32.650;-16.902;2023-02-22T10:48:46;102058.53;;;28.83;32.49
61026;BME280;46911;32.650;-16.902;2023-02-22T10:50:48;102053.53;;;29.73;31.03
61026;BME280;46911;32.650;-16.902;2023-02-22T10:52:54;102033.56;;;30.63;29.80
61026;BME280;46911;32.650;-16.902;2023-02-22T10:55:03;102038.19;;;31.31;28.23
61026;BME280;46911;32.650;-16.902;2023-02-22T10:57:20;102048.38;;;28.32;32.49
61026;BME280;46911;32.650;-16.902;2023-02-22T11:01:37;102067.03;;;25.62;37.89
61026;BME280;46911;32.650;-16.902;2023-02-22T11:03:44;102047.19;;;25.19;38.82
61026;BME280;46911;32.650;-16.902;2023-02-22T11:05:48;102047.53;;;25.90;37.07
61026;BME280;46911;32.650;-16.902;2023-02-22T11:08:18;102058.88;;;26.35;36.56
61026;BME280;46911;32.650;-16.902;2023-02-22T11:10:30;102053.72;;;25.76;37.24
61026;BME280;46911;32.650;-16.902;2023-02-22T11:12:37;102060.84;;;25.19;37.86
61026;BME280;46911;32.650;-16.902;2023-02-22T11:14:44;102053.53;;;24.34;39.90
61026;BME280;46911;32.650;-16.902;2023-02-22T11:16:51;102061.00;;;23.79;41.29
61026;BME280;46911;32.650;-16.902;2023-02-22T11:21:21;102045.50;;;22.71;43.54
61026;BME280;46911;32.650;-16.902;2023-02-22T11:23:24;102061.56;;;22.27;44.59
61026;BME280;46911;32.650;-16.902;2023-02-22T11:25:39;102044.09;;;21.82;45.66
61026;BME280;46911;32.650;-16.902;2023-02-22T11:27:47;102043.56;;;21.69;46.13